createdAt,value
2023-04-22T00:02:06.006Z,8.07
2023-04-22T00:04:34.287Z,8.50
2023-04-22T00:07:01.528Z,8.05
2023-04-22T00:09:29.610Z,7.43
2023-04-22T00:12:09.965Z,8.65
2023-04-22T00:14:37.920Z,8.57
2023-04-22T00:17:05.413Z,8.57
2023-04-22T00:19:42.560Z,7.88
2023-04-22T00:22:10.848Z,8.05
2023-04-22T00:24:38.876Z,8.05
2023-04-22T00:27:08.156Z,8.30
2023-04-22T00:29:35.043Z,8.95
2023-04-22T00:32:01.744Z,8.80
2023-04-22T00:34:28.412Z,8.35
2023-04-22T00:36:55.530Z,8.13
2023-04-22T00:39:22.410Z,8.10
2023-04-22T00:41:50.156Z,8.18
2023-04-22T00:44:18.914Z,8.30
2023-04-22T00:46:46.035Z,7.63
2023-04-22T00:49:15.883Z,8.48
2023-04-22T00:51:42.573Z,8.02
2023-04-22T00:54:12.061Z,7.65
2023-04-22T00:56:42.842Z,7.88
2023-04-22T00:59:10.092Z,7.95
2023-04-22T01:01:37.175Z,8.25
2023-04-22T01:04:04.316Z,7.88
2023-04-22T01:06:31.215Z,8.13
2023-04-22T01:08:59.138Z,8.32
2023-04-22T01:11:25.872Z,8.23
2023-04-22T01:13:52.958Z,7.97
2023-04-22T01:16:22.919Z,8.27
2023-04-22T01:18:50.853Z,9.30
2023-04-22T01:21:18.700Z,8.40
2023-04-22T01:23:46.552Z,9.00
2023-04-22T01:26:13.575Z,8.20
2023-04-22T01:28:41.515Z,9.23
2023-04-22T01:31:09.824Z,8.75
2023-04-22T01:33:36.703Z,8.50
2023-04-22T01:36:05.760Z,8.82
2023-04-22T01:38:34.996Z,8.15
2023-04-22T01:41:02.321Z,8.48
2023-04-22T01:43:30.339Z,8.25
2023-04-22T01:45:57.917Z,8.80
2023-04-22T01:48:24.762Z,8.15
2023-04-22T01:50:51.727Z,8.85
2023-04-22T01:53:18.477Z,8.88
2023-04-22T01:55:45.169Z,8.80
2023-04-22T01:58:11.910Z,8.65
2023-04-22T02:00:38.641Z,9.00
2023-04-22T02:03:05.636Z,9.13
2023-04-22T02:05:32.496Z,8.38
2023-04-22T02:07:59.286Z,8.40
2023-04-22T02:10:25.949Z,8.38
2023-04-22T02:12:52.683Z,8.15
2023-04-22T02:15:20.292Z,9.15
2023-04-22T02:17:50.509Z,9.30
2023-04-22T02:20:20.313Z,9.32
2023-04-22T02:22:50.937Z,8.80
2023-04-22T02:25:21.873Z,9.10
2023-04-22T02:27:48.579Z,8.80
2023-04-22T02:30:15.337Z,9.32
2023-04-22T02:32:42.020Z,9.18
2023-04-22T02:35:16.395Z,8.70
2023-04-22T02:37:43.079Z,8.90
2023-04-22T02:40:10.135Z,9.07
2023-04-22T02:42:37.021Z,8.57
2023-04-22T02:45:04.101Z,9.38
2023-04-22T02:47:30.826Z,9.02
2023-04-22T02:49:57.543Z,8.75
2023-04-22T02:52:24.220Z,9.35
2023-04-22T02:54:50.936Z,9.88
2023-04-22T02:57:17.741Z,9.50
2023-04-22T02:59:45.553Z,9.50
2023-04-22T03:02:12.288Z,9.70
2023-04-22T03:04:40.388Z,9.38
2023-04-22T03:07:09.002Z,9.50
2023-04-22T03:09:36.271Z,9.35
2023-04-22T03:12:04.592Z,9.35
2023-04-22T03:14:34.673Z,9.30
2023-04-22T03:17:02.860Z,8.98
2023-04-22T03:19:30.783Z,8.50
2023-04-22T03:21:57.494Z,8.85
2023-04-22T03:24:24.237Z,8.95
2023-04-22T03:26:50.915Z,9.20
2023-04-22T03:29:18.845Z,9.57
2023-04-22T03:31:45.689Z,10.15
2023-04-22T03:34:12.426Z,9.05
2023-04-22T03:36:39.144Z,8.65
2023-04-22T03:39:05.823Z,9.00
2023-04-22T03:41:32.523Z,9.23
2023-04-22T03:44:01.631Z,8.93
2023-04-22T03:46:28.784Z,9.43
2023-04-22T03:48:55.616Z,9.35
2023-04-22T03:51:22.283Z,9.32
2023-04-22T03:53:50.157Z,9.95
2023-04-22T03:56:20.707Z,9.35
2023-04-22T03:58:48.913Z,9.82
2023-04-22T04:01:28.857Z,10.60
2023-04-22T04:03:57.285Z,9.38
2023-04-22T04:06:26.363Z,10.20
2023-04-22T04:08:54.228Z,10.13
2023-04-22T04:11:22.921Z,10.45
2023-04-22T04:13:49.709Z,10.70
2023-04-22T04:16:16.644Z,10.60
2023-04-22T04:18:43.431Z,10.48
2023-04-22T04:21:10.156Z,9.98
2023-04-22T04:23:36.859Z,10.63
2023-04-22T04:26:03.651Z,10.75
2023-04-22T04:28:30.342Z,10.82
2023-04-22T04:30:57.109Z,11.07
2023-04-22T04:33:23.870Z,11.38
2023-04-22T04:35:53.079Z,10.68
2023-04-22T04:38:21.156Z,11.02
2023-04-22T04:40:48.589Z,10.90
2023-04-22T04:43:16.382Z,11.38
2023-04-22T04:45:48.650Z,11.35
2023-04-22T04:48:19.020Z,11.30
2023-04-22T04:50:46.366Z,11.52
2023-04-22T04:53:20.546Z,10.95
2023-04-22T04:55:48.121Z,11.02
2023-04-22T04:58:17.310Z,11.25
2023-04-22T05:00:43.967Z,11.95
2023-04-22T05:03:10.773Z,11.30
2023-04-22T05:05:37.558Z,11.25
2023-04-22T05:08:04.215Z,11.57
2023-04-22T05:10:31.003Z,12.25
2023-04-22T05:12:57.745Z,11.90
2023-04-22T05:15:24.452Z,11.55
2023-04-22T05:17:51.211Z,12.13
2023-04-22T05:20:19.166Z,11.75
2023-04-22T05:22:45.840Z,16.98
2023-04-22T05:25:14.104Z,13.30
2023-04-22T05:27:42.031Z,12.32
2023-04-22T05:30:09.757Z,12.48
2023-04-22T05:32:37.673Z,11.70
2023-04-22T05:35:04.773Z,11.73
2023-04-22T05:37:32.733Z,12.32
2023-04-22T05:40:01.557Z,12.65
2023-04-22T05:42:32.259Z,12.30
2023-04-22T05:45:01.503Z,11.75
2023-04-22T05:47:30.586Z,12.95
2023-04-22T05:49:57.450Z,12.48
2023-04-22T05:52:24.352Z,11.77
2023-04-22T05:54:51.121Z,12.93
2023-04-22T05:57:17.933Z,12.65
2023-04-22T05:59:44.635Z,12.50
2023-04-22T06:02:11.493Z,11.77
2023-04-22T06:04:38.476Z,13.07
2023-04-22T06:07:05.466Z,12.82
2023-04-22T06:09:32.166Z,11.70
2023-04-22T06:11:59.144Z,12.15
2023-04-22T06:14:25.880Z,11.80
2023-04-22T06:16:52.555Z,11.23
2023-04-22T06:19:20.768Z,12.43
2023-04-22T06:21:48.203Z,12.00
2023-04-22T06:24:18.380Z,11.88
2023-04-22T06:26:46.301Z,12.35
2023-04-22T06:29:13.033Z,12.05
2023-04-22T06:31:39.811Z,11.70
2023-04-22T06:34:06.506Z,11.30
2023-04-22T06:36:33.314Z,11.65
2023-04-22T06:38:59.985Z,11.90
2023-04-22T06:41:26.767Z,11.48
2023-04-22T06:43:53.500Z,12.00
2023-04-22T06:46:20.245Z,11.40
2023-04-22T06:48:47.199Z,11.13
2023-04-22T06:51:15.328Z,11.82
2023-04-22T06:53:42.042Z,11.38
2023-04-22T06:56:09.958Z,10.35
2023-04-22T06:58:36.688Z,11.38
2023-04-22T07:01:04.884Z,10.90
2023-04-22T07:03:31.683Z,11.38
2023-04-22T07:06:02.372Z,11.38
2023-04-22T07:08:30.316Z,10.45
2023-04-22T07:10:57.265Z,10.70
2023-04-22T07:13:24.061Z,10.75
2023-04-22T07:15:50.727Z,13.48
2023-04-22T07:18:17.491Z,11.90
2023-04-22T07:20:44.316Z,11.45
2023-04-22T07:23:11.015Z,10.80
2023-04-22T07:25:37.716Z,10.30
2023-04-22T07:28:04.577Z,10.95
2023-04-22T07:30:31.277Z,11.40
2023-04-22T07:32:57.971Z,10.48
2023-04-22T07:35:24.839Z,11.00
2023-04-22T07:37:51.595Z,13.73
2023-04-22T07:40:19.877Z,10.65
2023-04-22T07:42:47.305Z,10.60
2023-04-22T07:45:17.758Z,11.95
2023-04-22T07:47:46.184Z,11.30
2023-04-22T07:50:20.461Z,10.90
2023-04-22T07:52:48.552Z,11.32
2023-04-22T07:55:15.388Z,10.35
2023-04-22T07:57:44.726Z,11.13
2023-04-22T08:00:11.991Z,10.27
2023-04-22T08:02:38.863Z,10.52
2023-04-22T08:05:06.354Z,10.60
2023-04-22T08:07:33.734Z,10.75
2023-04-22T08:10:00.765Z,10.20
2023-04-22T08:12:27.619Z,9.90
2023-04-22T08:14:54.297Z,10.20
2023-04-22T08:17:21.046Z,9.80
2023-04-22T08:19:48.566Z,10.18
2023-04-22T08:22:16.640Z,10.30
2023-04-22T08:24:44.832Z,10.15
2023-04-22T08:27:13.118Z,9.93
2023-04-22T08:29:43.771Z,9.27
2023-04-22T08:32:12.389Z,8.98
2023-04-22T08:34:43.946Z,9.68
2023-04-22T08:37:13.947Z,9.23
2023-04-22T08:39:42.793Z,9.75
2023-04-22T08:42:10.200Z,9.95
2023-04-22T08:44:39.213Z,9.68
2023-04-22T08:47:06.650Z,10.50
2023-04-22T08:49:35.914Z,9.90
2023-04-22T08:52:02.896Z,9.50
2023-04-22T08:54:32.087Z,9.52
2023-04-22T08:57:00.879Z,8.77
2023-04-22T08:59:27.859Z,9.15
2023-04-22T09:01:55.998Z,8.80
2023-04-22T09:04:23.171Z,22.63
2023-04-22T09:06:50.225Z,9.30
2023-04-22T09:09:19.780Z,8.98
2023-04-22T09:11:49.579Z,8.25
2023-04-22T09:14:18.213Z,8.63
2023-04-22T09:16:51.297Z,8.43
2023-04-22T09:19:24.800Z,8.65
2023-04-22T09:21:54.098Z,8.80
2023-04-22T09:24:22.492Z,8.45
2023-04-22T09:26:52.540Z,8.27
2023-04-22T09:29:22.644Z,7.10
2023-04-22T09:31:51.334Z,7.53
2023-04-22T09:37:06.124Z,6.80
2023-04-22T09:39:36.026Z,7.13
2023-04-22T09:42:06.137Z,7.05
2023-04-22T09:44:35.663Z,7.53
2023-04-22T09:49:48.135Z,6.57
2023-04-22T09:52:25.620Z,7.00
2023-04-22T09:54:53.659Z,6.90
2023-04-22T09:57:21.406Z,8.95
2023-04-22T09:59:54.292Z,7.00
2023-04-22T10:02:29.576Z,6.43
2023-04-22T10:04:57.876Z,7.90
2023-04-22T10:07:25.220Z,7.25
2023-04-22T10:09:54.771Z,7.18
2023-04-22T10:15:05.654Z,6.97
2023-04-22T10:17:37.215Z,7.22
2023-04-22T10:20:09.770Z,6.95
2023-04-22T10:22:39.170Z,6.63
2023-04-22T10:25:23.374Z,6.85
2023-04-22T10:28:02.928Z,6.78
2023-04-22T10:30:32.350Z,6.50
2023-04-22T10:33:20.932Z,8.30
2023-04-22T10:36:06.441Z,7.60
2023-04-22T10:38:50.195Z,6.47
2023-04-22T10:41:22.302Z,6.18
2023-04-22T10:43:57.144Z,6.07
2023-04-22T10:46:35.513Z,6.30
2023-04-22T10:49:13.876Z,6.00
2023-04-22T10:51:45.668Z,6.78
2023-04-22T10:54:30.559Z,6.25
2023-04-22T10:57:14.233Z,6.35
2023-04-22T10:59:53.837Z,6.25
2023-04-22T11:02:22.495Z,6.47
2023-04-22T11:04:51.349Z,6.15
2023-04-22T11:07:21.154Z,8.30
2023-04-22T11:09:51.582Z,6.97
2023-04-22T11:12:37.181Z,6.20
2023-04-22T11:15:07.186Z,6.20
2023-04-22T11:17:36.314Z,6.20
2023-04-22T11:20:07.751Z,5.78
2023-04-22T11:22:39.046Z,6.32
2023-04-22T11:25:10.463Z,6.13
2023-04-22T11:27:40.126Z,6.50
2023-04-22T11:30:22.657Z,6.30
2023-04-22T11:32:53.142Z,6.35
2023-04-22T11:35:32.190Z,6.32
2023-04-22T11:38:03.721Z,6.35
2023-04-22T11:40:49.704Z,6.13
2023-04-22T11:45:45.326Z,6.13
2023-04-22T11:48:15.061Z,7.18
2023-04-22T11:50:42.702Z,6.05
2023-04-22T11:53:20.277Z,6.28
2023-04-22T11:55:50.953Z,6.18
2023-04-22T11:58:27.704Z,6.25
2023-04-22T12:00:57.532Z,6.03
2023-04-22T12:03:29.396Z,6.60
2023-04-22T12:06:02.075Z,6.20
2023-04-22T12:08:37.683Z,10.68
2023-04-22T12:13:38.582Z,6.35
2023-04-22T12:16:13.481Z,5.43
2023-04-22T12:18:55.728Z,6.05
2023-04-22T12:21:25.283Z,6.22
2023-04-22T12:24:03.015Z,5.63
2023-04-22T12:26:29.901Z,5.38
2023-04-22T12:29:00.452Z,5.82
2023-04-22T12:31:27.512Z,5.85
2023-04-22T12:33:54.360Z,5.90
2023-04-22T12:36:21.373Z,5.88
2023-04-22T12:38:48.189Z,5.60
2023-04-22T12:41:16.294Z,5.43
2023-04-22T12:43:44.350Z,5.57
2023-04-22T12:46:11.329Z,5.63
2023-04-22T12:48:39.234Z,5.45
2023-04-22T12:51:09.066Z,5.13
2023-04-22T12:53:38.961Z,5.53
2023-04-22T12:56:05.855Z,5.60
2023-04-22T12:58:33.007Z,4.75
2023-04-22T13:01:00.235Z,9.02
2023-04-22T13:03:27.149Z,5.57
2023-04-22T13:05:54.667Z,5.00
2023-04-22T13:08:21.374Z,4.80
2023-04-22T13:10:48.623Z,4.97
2023-04-22T13:13:18.896Z,5.32
2023-04-22T13:15:47.768Z,5.55
2023-04-22T13:18:15.679Z,5.35
2023-04-22T13:20:42.421Z,5.05
2023-04-22T13:23:09.080Z,5.45
2023-04-22T13:25:35.887Z,5.30
2023-04-22T13:28:04.541Z,5.70
2023-04-22T13:30:31.308Z,4.95
2023-04-22T13:32:58.047Z,5.20
2023-04-22T13:35:24.779Z,5.60
2023-04-22T13:37:51.461Z,5.57
2023-04-22T13:40:19.245Z,5.70
2023-04-22T13:42:47.132Z,5.30
2023-04-22T13:45:13.841Z,5.25
2023-04-22T13:47:44.169Z,5.47
2023-04-22T13:50:11.513Z,5.30
2023-04-22T13:52:38.285Z,4.78
2023-04-22T13:55:05.511Z,4.90
2023-04-22T13:57:32.241Z,5.43
2023-04-22T13:59:59.105Z,5.00
2023-04-22T14:02:25.905Z,5.22
2023-04-22T14:04:52.741Z,5.63
2023-04-22T14:07:19.412Z,5.13
2023-04-22T14:09:46.202Z,5.13
2023-04-22T14:12:13.134Z,4.82
2023-04-22T14:14:41.301Z,5.32
2023-04-22T14:17:08.336Z,5.97
2023-04-22T14:19:36.620Z,5.57
2023-04-22T14:22:06.163Z,4.78
2023-04-22T14:24:33.660Z,4.78
2023-04-22T14:27:01.889Z,4.90
2023-04-22T14:29:31.222Z,7.70
2023-04-22T14:31:58.747Z,5.93
2023-04-22T14:34:25.609Z,4.72
2023-04-22T14:36:52.479Z,4.53
2023-04-22T14:39:19.215Z,4.93
2023-04-22T14:41:46.005Z,5.75
2023-04-22T14:44:12.786Z,5.28
2023-04-22T14:46:39.639Z,4.78
2023-04-22T14:49:06.409Z,5.00
2023-04-22T14:51:33.219Z,5.07
2023-04-22T14:53:59.956Z,4.75
2023-04-22T14:56:26.684Z,4.70
2023-04-22T14:58:55.638Z,5.05
2023-04-22T15:01:25.202Z,4.88
2023-04-22T15:03:58.132Z,5.10
2023-04-22T15:06:25.420Z,4.63
2023-04-22T15:08:56.139Z,4.65
2023-04-22T15:11:24.205Z,5.28
2023-04-22T15:13:51.842Z,5.22
2023-04-22T15:16:18.578Z,5.05
2023-04-22T15:18:45.314Z,5.18
2023-04-22T15:21:12.082Z,4.70
2023-04-22T15:23:38.796Z,4.90
2023-04-22T15:26:06.023Z,4.60
2023-04-22T15:28:33.217Z,5.20
2023-04-22T15:31:00.786Z,4.57
2023-04-22T15:33:27.601Z,5.10
2023-04-22T15:35:54.475Z,4.90
2023-04-22T15:38:21.169Z,5.30
2023-04-22T15:40:47.843Z,4.78
2023-04-22T15:43:15.555Z,5.30
2023-04-22T15:45:44.636Z,4.72
2023-04-22T15:48:13.528Z,4.95
2023-04-22T15:50:40.505Z,4.60
2023-04-22T15:53:07.292Z,4.70
2023-04-22T15:55:34.014Z,4.72
2023-04-22T15:58:00.716Z,4.70
2023-04-22T16:00:27.538Z,5.20
2023-04-22T16:02:54.507Z,4.80
2023-04-22T16:05:21.706Z,5.22
2023-04-22T16:07:49.423Z,5.82
2023-04-22T16:10:17.664Z,5.15
2023-04-22T16:12:45.177Z,5.88
2023-04-22T16:15:13.033Z,4.97
2023-04-22T16:17:39.980Z,4.30
2023-04-22T16:20:08.787Z,4.88
2023-04-22T16:22:35.452Z,5.25
2023-04-22T16:25:03.261Z,4.50
2023-04-22T16:27:30.054Z,4.65
2023-04-22T16:29:59.759Z,5.10
2023-04-22T16:32:26.487Z,5.28
2023-04-22T16:34:53.237Z,5.18
2023-04-22T16:37:19.971Z,6.65
2023-04-22T16:39:46.680Z,6.68
2023-04-22T16:42:13.490Z,5.68
2023-04-22T16:44:40.244Z,6.90
2023-04-22T16:47:06.945Z,8.80
2023-04-22T16:49:33.872Z,7.60
2023-04-22T16:52:00.543Z,7.20
2023-04-22T16:54:27.234Z,5.63
2023-04-22T16:56:55.316Z,5.80
2023-04-22T16:59:23.586Z,6.05
2023-04-22T17:01:52.210Z,10.18
2023-04-22T17:04:19.223Z,7.20
2023-04-22T17:06:46.040Z,5.30
2023-04-22T17:09:12.812Z,5.50
2023-04-22T17:11:39.764Z,5.80
2023-04-22T17:14:06.460Z,5.40
2023-04-22T17:16:33.231Z,6.53
2023-04-22T17:18:59.909Z,5.80
2023-04-22T17:21:26.644Z,5.95
2023-04-22T17:23:53.390Z,6.82
2023-04-22T17:26:20.159Z,6.07
2023-04-22T17:28:47.182Z,7.70
2023-04-22T17:31:14.992Z,8.38
2023-04-22T17:33:41.746Z,6.60
2023-04-22T17:36:09.753Z,6.45
2023-04-22T17:38:37.570Z,6.53
2023-04-22T17:41:05.182Z,6.43
2023-04-22T17:43:33.446Z,6.95
2023-04-22T17:46:03.035Z,6.85
2023-04-22T17:48:29.703Z,6.82
2023-04-22T17:50:56.379Z,7.32
2023-04-22T17:53:23.086Z,8.23
2023-04-22T17:55:49.864Z,9.48
2023-04-22T17:58:19.668Z,13.38
2023-04-22T18:00:48.532Z,9.50
2023-04-22T18:03:15.594Z,8.65
2023-04-22T18:05:42.478Z,8.82
2023-04-22T18:08:10.370Z,9.55
2023-04-22T18:10:38.076Z,10.75
2023-04-22T18:13:06.130Z,8.80
2023-04-22T18:15:32.805Z,8.93
2023-04-22T18:17:59.547Z,8.60
2023-04-22T18:20:26.280Z,7.95
2023-04-22T18:22:53.136Z,8.23
2023-04-22T18:25:19.962Z,7.63
2023-04-22T18:27:46.584Z,7.65
2023-04-22T18:30:13.496Z,7.50
2023-04-22T18:32:40.284Z,7.53
2023-04-22T18:35:07.654Z,8.77
2023-04-22T18:37:35.480Z,7.38
2023-04-22T18:40:02.777Z,8.45
2023-04-22T18:42:30.697Z,7.97
2023-04-22T18:45:01.875Z,8.20
2023-04-22T18:47:34.435Z,8.23
2023-04-22T18:50:01.204Z,10.02
2023-04-22T18:52:27.941Z,10.77
2023-04-22T18:54:54.724Z,9.45
2023-04-22T18:57:21.479Z,8.88
2023-04-22T18:59:48.329Z,9.02
2023-04-22T19:02:15.097Z,9.73
2023-04-22T19:04:42.163Z,10.38
2023-04-22T19:07:09.254Z,9.77
2023-04-22T19:09:36.034Z,9.55
2023-04-22T19:12:03.006Z,9.20
2023-04-22T19:14:29.810Z,10.02
2023-04-22T19:16:57.597Z,10.10
2023-04-22T19:19:24.259Z,9.68
2023-04-22T19:21:51.067Z,10.40
2023-04-22T19:24:17.746Z,10.60
2023-04-22T19:26:45.539Z,11.15
2023-04-22T19:29:13.546Z,10.40
2023-04-22T19:31:40.347Z,10.23
2023-04-22T19:34:07.141Z,10.57
2023-04-22T19:36:33.853Z,10.68
2023-04-22T19:39:00.636Z,11.55
2023-04-22T19:41:27.356Z,10.07
2023-04-22T19:43:54.141Z,10.55
2023-04-22T19:46:20.847Z,10.85
2023-04-22T19:48:49.063Z,11.20
2023-04-22T19:51:16.099Z,10.68
2023-04-22T19:53:47.369Z,11.18
2023-04-22T19:56:15.792Z,9.70
2023-04-22T19:58:44.693Z,9.77
2023-04-22T20:01:14.557Z,9.52
2023-04-22T20:03:44.343Z,10.27
2023-04-22T20:06:22.719Z,9.77
2023-04-22T20:08:55.391Z,9.80
2023-04-22T20:11:23.735Z,10.80
2023-04-22T20:13:53.591Z,9.90
2023-04-22T20:16:21.749Z,10.00
2023-04-22T20:18:53.617Z,10.90
2023-04-22T20:21:20.353Z,9.95
2023-04-22T20:23:49.631Z,9.10
2023-04-22T20:26:21.730Z,9.80
2023-04-22T20:28:50.858Z,9.27
2023-04-22T20:31:18.734Z,10.35
2023-04-22T20:33:45.691Z,10.77
2023-04-22T20:36:13.806Z,10.70
2023-04-22T20:38:42.468Z,10.48
2023-04-22T20:41:09.344Z,10.00
2023-04-22T20:43:36.145Z,9.63
2023-04-22T20:46:04.256Z,9.65
2023-04-22T20:48:31.037Z,9.75
2023-04-22T20:50:59.241Z,9.18
2023-04-22T20:53:29.460Z,9.60
2023-04-22T20:55:59.719Z,9.43
2023-04-22T20:58:27.827Z,9.70
2023-04-22T21:00:54.605Z,9.27
2023-04-22T21:03:22.836Z,9.40
2023-04-22T21:05:50.155Z,9.75
2023-04-22T21:08:19.878Z,9.65
2023-04-22T21:10:47.474Z,9.13
2023-04-22T21:13:14.404Z,10.10
2023-04-22T21:15:49.701Z,9.68
2023-04-22T21:18:21.286Z,10.07
2023-04-22T21:20:53.710Z,10.10
2023-04-22T21:23:24.178Z,10.43
2023-04-22T21:25:53.120Z,10.45
2023-04-22T21:28:21.820Z,10.52
2023-04-22T21:30:48.927Z,11.27
2023-04-22T21:33:19.094Z,11.30
2023-04-22T21:35:51.086Z,10.18
2023-04-22T21:38:18.993Z,11.80
2023-04-22T21:40:51.757Z,10.93
2023-04-22T21:43:18.494Z,12.20
2023-04-22T21:45:47.187Z,11.95
2023-04-22T21:48:13.893Z,11.90
2023-04-22T21:50:40.636Z,11.60
2023-04-22T21:53:08.806Z,11.43
2023-04-22T21:55:35.556Z,10.93
2023-04-22T21:58:02.208Z,11.73
2023-04-22T22:00:31.112Z,11.38
2023-04-22T22:03:02.734Z,10.82
2023-04-22T22:05:32.561Z,10.48
2023-04-22T22:08:01.564Z,10.77
2023-04-22T22:10:28.632Z,10.98
2023-04-22T22:12:55.398Z,10.70
2023-04-22T22:15:22.218Z,10.45
2023-04-22T22:17:49.649Z,11.23
2023-04-22T22:20:16.863Z,11.15
2023-04-22T22:22:45.164Z,10.57
2023-04-22T22:25:14.557Z,10.15
2023-04-22T22:27:44.157Z,10.18
2023-04-22T22:30:11.662Z,9.85
2023-04-22T22:32:40.055Z,10.65
2023-04-22T22:35:07.129Z,9.73
2023-04-22T22:37:35.365Z,10.25
2023-04-22T22:40:02.195Z,11.30
2023-04-22T22:42:31.482Z,10.50
2023-04-22T22:45:07.548Z,9.73
2023-04-22T22:47:40.070Z,9.77
2023-04-22T22:50:11.053Z,10.27
2023-04-22T22:52:50.729Z,9.70
2023-04-22T22:55:18.621Z,9.27
2023-04-22T22:57:47.897Z,10.02
2023-04-22T23:00:16.076Z,9.98
2023-04-22T23:02:42.903Z,9.40
2023-04-22T23:05:10.866Z,9.32
2023-04-22T23:07:37.709Z,11.70
2023-04-22T23:10:04.850Z,11.02
2023-04-22T23:12:31.524Z,10.20
2023-04-22T23:14:58.183Z,9.32
2023-04-22T23:17:25.041Z,10.25
2023-04-22T23:19:54.317Z,9.82
2023-04-22T23:22:21.283Z,11.27
2023-04-22T23:24:48.436Z,10.20
2023-04-22T23:27:16.582Z,10.13
2023-04-22T23:29:44.916Z,10.15
2023-04-22T23:32:15.597Z,9.75
2023-04-22T23:34:46.438Z,10.77
2023-04-22T23:37:15.429Z,10.75
2023-04-22T23:39:43.491Z,11.27
2023-04-22T23:42:14.030Z,9.82
2023-04-22T23:44:45.386Z,9.50
2023-04-22T23:47:14.268Z,10.40
2023-04-22T23:49:40.959Z,10.10
2023-04-22T23:52:07.687Z,10.50
2023-04-22T23:54:34.667Z,10.02
2023-04-22T23:57:01.544Z,10.70
2023-04-22T23:59:28.498Z,10.45
